sensor_id;sensor_type;location;lat;lon;timestamp;P1;durP1;ratioP1;P2;durP2;ratioP2
28822;SDS011;15961;54.678;9.110;2022-12-07T00:03:39;28.55;;;10.48;;
28822;SDS011;15961;54.678;9.110;2022-12-07T00:06:06;22.73;;;8.95;;
28822;SDS011;15961;54.678;9.110;2022-12-07T00:08:33;18.13;;;7.05;;
28822;SDS011;15961;54.678;9.110;2022-12-07T00:11:02;13.15;;;6.55;;
28822;SDS011;15961;54.678;9.110;2022-12-07T00:13:30;15.95;;;5.80;;
28822;SDS011;15961;54.678;9.110;2022-12-07T00:15:59;15.68;;;7.03;;
28822;SDS011;15961;54.678;9.110;2022-12-07T00:18:26;15.50;;;5.95;;
28822;SDS011;15961;54.678;9.110;2022-12-07T00:20:52;15.32;;;6.07;;
28822;SDS011;15961;54.678;9.110;2022-12-07T00:23:17;17.30;;;6.90;;
28822;SDS011;15961;54.678;9.110;2022-12-07T00:25:43;12.75;;;6.75;;
28822;SDS011;15961;54.678;9.110;2022-12-07T00:28:08;14.15;;;7.15;;
28822;SDS011;15961;54.678;9.110;2022-12-07T00:30:35;11.45;;;6.95;;
28822;SDS011;15961;54.678;9.110;2022-12-07T00:33:01;16.63;;;7.75;;
28822;SDS011;15961;54.678;9.110;2022-12-07T00:35:29;14.00;;;7.30;;
28822;SDS011;15961;54.678;9.110;2022-12-07T00:37:54;16.80;;;8.00;;
28822;SDS011;15961;54.678;9.110;2022-12-07T00:40:20;19.58;;;8.82;;
28822;SDS011;15961;54.678;9.110;2022-12-07T00:42:45;19.63;;;9.57;;
28822;SDS011;15961;54.678;9.110;2022-12-07T00:45:11;22.05;;;10.25;;
28822;SDS011;15961;54.678;9.110;2022-12-07T00:47:36;26.80;;;12.75;;
28822;SDS011;15961;54.678;9.110;2022-12-07T00:50:02;28.83;;;14.18;;
28822;SDS011;15961;54.678;9.110;2022-12-07T00:52:28;28.20;;;15.43;;
28822;SDS011;15961;54.678;9.110;2022-12-07T00:54:53;31.75;;;15.38;;
28822;SDS011;15961;54.678;9.110;2022-12-07T00:57:19;37.05;;;16.20;;
28822;SDS011;15961;54.678;9.110;2022-12-07T00:59:44;37.30;;;16.17;;
28822;SDS011;15961;54.678;9.110;2022-12-07T01:02:10;39.33;;;16.27;;
28822;SDS011;15961;54.678;9.110;2022-12-07T01:04:35;36.78;;;15.73;;
28822;SDS011;15961;54.678;9.110;2022-12-07T01:07:01;31.50;;;15.90;;
28822;SDS011;15961;54.678;9.110;2022-12-07T01:09:26;39.47;;;16.00;;
28822;SDS011;15961;54.678;9.110;2022-12-07T01:11:52;34.60;;;15.63;;
28822;SDS011;15961;54.678;9.110;2022-12-07T01:14:17;35.20;;;16.55;;
28822;SDS011;15961;54.678;9.110;2022-12-07T01:16:43;39.30;;;15.60;;
28822;SDS011;15961;54.678;9.110;2022-12-07T01:19:08;39.70;;;16.13;;
28822;SDS011;15961;54.678;9.110;2022-12-07T01:21:34;29.30;;;15.55;;
28822;SDS011;15961;54.678;9.110;2022-12-07T01:24:03;28.30;;;13.63;;
28822;SDS011;15961;54.678;9.110;2022-12-07T01:26:30;31.25;;;14.90;;
28822;SDS011;15961;54.678;9.110;2022-12-07T01:28:55;33.50;;;14.88;;
28822;SDS011;15961;54.678;9.110;2022-12-07T01:31:24;35.28;;;14.75;;
28822;SDS011;15961;54.678;9.110;2022-12-07T01:33:51;35.65;;;16.45;;
28822;SDS011;15961;54.678;9.110;2022-12-07T01:36:21;45.35;;;23.70;;
28822;SDS011;15961;54.678;9.110;2022-12-07T01:38:55;47.45;;;23.23;;
28822;SDS011;15961;54.678;9.110;2022-12-07T01:41:26;88.68;;;30.85;;
28822;SDS011;15961;54.678;9.110;2022-12-07T01:46:36;40.22;;;18.08;;
28822;SDS011;15961;54.678;9.110;2022-12-07T01:49:03;47.30;;;20.23;;
28822;SDS011;15961;54.678;9.110;2022-12-07T01:51:30;38.78;;;17.38;;
28822;SDS011;15961;54.678;9.110;2022-12-07T01:53:56;35.83;;;19.08;;
28822;SDS011;15961;54.678;9.110;2022-12-07T01:56:23;35.50;;;16.88;;
28822;SDS011;15961;54.678;9.110;2022-12-07T01:58:51;33.17;;;16.02;;
28822;SDS011;15961;54.678;9.110;2022-12-07T02:01:18;40.72;;;17.15;;
28822;SDS011;15961;54.678;9.110;2022-12-07T02:03:43;29.48;;;15.32;;
28822;SDS011;15961;54.678;9.110;2022-12-07T02:06:11;39.50;;;18.42;;
28822;SDS011;15961;54.678;9.110;2022-12-07T02:08:40;31.83;;;16.38;;
28822;SDS011;15961;54.678;9.110;2022-12-07T02:11:07;30.70;;;15.13;;
28822;SDS011;15961;54.678;9.110;2022-12-07T02:13:35;34.88;;;17.35;;
28822;SDS011;15961;54.678;9.110;2022-12-07T02:21:45;42.65;;;19.08;;
28822;SDS011;15961;54.678;9.110;2022-12-07T02:24:30;40.17;;;18.43;;
28822;SDS011;15961;54.678;9.110;2022-12-07T02:40:23;35.95;;;18.38;;
28822;SDS011;15961;54.678;9.110;2022-12-07T02:43:10;32.95;;;16.88;;
28822;SDS011;15961;54.678;9.110;2022-12-07T02:45:42;40.47;;;18.67;;
28822;SDS011;15961;54.678;9.110;2022-12-07T02:48:12;39.75;;;19.50;;
28822;SDS011;15961;54.678;9.110;2022-12-07T02:50:43;41.20;;;20.73;;
28822;SDS011;15961;54.678;9.110;2022-12-07T02:53:28;45.40;;;20.52;;
28822;SDS011;15961;54.678;9.110;2022-12-07T02:55:55;41.17;;;18.52;;
28822;SDS011;15961;54.678;9.110;2022-12-07T02:58:32;40.38;;;18.85;;
28822;SDS011;15961;54.678;9.110;2022-12-07T03:01:14;59.25;;;24.95;;
28822;SDS011;15961;54.678;9.110;2022-12-07T03:03:42;41.80;;;18.48;;
28822;SDS011;15961;54.678;9.110;2022-12-07T03:06:20;40.08;;;20.48;;
28822;SDS011;15961;54.678;9.110;2022-12-07T03:11:45;59.17;;;25.00;;
28822;SDS011;15961;54.678;9.110;2022-12-07T03:14:15;53.38;;;24.67;;
28822;SDS011;15961;54.678;9.110;2022-12-07T03:17:08;61.22;;;27.95;;
28822;SDS011;15961;54.678;9.110;2022-12-07T03:19:39;59.95;;;24.52;;
28822;SDS011;15961;54.678;9.110;2022-12-07T03:22:07;62.53;;;27.45;;
28822;SDS011;15961;54.678;9.110;2022-12-07T03:24:37;52.03;;;23.92;;
28822;SDS011;15961;54.678;9.110;2022-12-07T03:29:59;44.83;;;23.25;;
28822;SDS011;15961;54.678;9.110;2022-12-07T03:32:30;47.60;;;24.20;;
28822;SDS011;15961;54.678;9.110;2022-12-07T03:35:07;52.83;;;25.58;;
28822;SDS011;15961;54.678;9.110;2022-12-07T03:37:57;66.93;;;34.38;;
28822;SDS011;15961;54.678;9.110;2022-12-07T03:40:50;59.70;;;26.95;;
28822;SDS011;15961;54.678;9.110;2022-12-07T03:43:29;45.05;;;22.15;;
28822;SDS011;15961;54.678;9.110;2022-12-07T03:49:06;36.25;;;16.08;;
28822;SDS011;15961;54.678;9.110;2022-12-07T03:51:49;36.53;;;17.08;;
28822;SDS011;15961;54.678;9.110;2022-12-07T03:54:27;32.35;;;15.88;;
28822;SDS011;15961;54.678;9.110;2022-12-07T03:56:59;36.13;;;15.32;;
28822;SDS011;15961;54.678;9.110;2022-12-07T03:59:27;32.95;;;15.32;;
28822;SDS011;15961;54.678;9.110;2022-12-07T04:01:55;35.00;;;15.20;;
28822;SDS011;15961;54.678;9.110;2022-12-07T04:04:23;32.25;;;14.90;;
28822;SDS011;15961;54.678;9.110;2022-12-07T04:06:50;33.05;;;14.93;;
28822;SDS011;15961;54.678;9.110;2022-12-07T04:09:15;38.47;;;16.15;;
28822;SDS011;15961;54.678;9.110;2022-12-07T04:11:41;35.45;;;16.10;;
28822;SDS011;15961;54.678;9.110;2022-12-07T04:14:07;46.17;;;20.63;;
28822;SDS011;15961;54.678;9.110;2022-12-07T04:16:49;34.00;;;15.55;;
28822;SDS011;15961;54.678;9.110;2022-12-07T04:19:17;43.25;;;17.35;;
28822;SDS011;15961;54.678;9.110;2022-12-07T04:21:44;35.83;;;17.08;;
28822;SDS011;15961;54.678;9.110;2022-12-07T04:24:11;41.28;;;17.27;;
28822;SDS011;15961;54.678;9.110;2022-12-07T04:26:38;44.47;;;17.30;;
28822;SDS011;15961;54.678;9.110;2022-12-07T04:29:03;42.33;;;16.95;;
28822;SDS011;15961;54.678;9.110;2022-12-07T04:31:29;39.55;;;16.52;;
28822;SDS011;15961;54.678;9.110;2022-12-07T04:33:54;42.90;;;15.57;;
28822;SDS011;15961;54.678;9.110;2022-12-07T04:36:20;36.28;;;15.32;;
28822;SDS011;15961;54.678;9.110;2022-12-07T04:38:46;36.78;;;14.88;;
28822;SDS011;15961;54.678;9.110;2022-12-07T04:41:11;52.70;;;21.75;;
28822;SDS011;15961;54.678;9.110;2022-12-07T04:43:37;36.88;;;17.00;;
28822;SDS011;15961;54.678;9.110;2022-12-07T04:46:03;27.75;;;13.32;;
28822;SDS011;15961;54.678;9.110;2022-12-07T04:48:28;34.75;;;14.25;;
28822;SDS011;15961;54.678;9.110;2022-12-07T04:50:57;35.92;;;11.23;;
28822;SDS011;15961;54.678;9.110;2022-12-07T04:53:22;25.60;;;11.85;;
28822;SDS011;15961;54.678;9.110;2022-12-07T04:55:48;32.38;;;11.88;;
28822;SDS011;15961;54.678;9.110;2022-12-07T04:58:13;24.35;;;10.20;;
28822;SDS011;15961;54.678;9.110;2022-12-07T05:00:40;24.80;;;9.75;;
28822;SDS011;15961;54.678;9.110;2022-12-07T05:03:06;29.20;;;9.70;;
28822;SDS011;15961;54.678;9.110;2022-12-07T05:05:31;19.70;;;9.52;;
28822;SDS011;15961;54.678;9.110;2022-12-07T05:07:57;33.72;;;11.07;;
28822;SDS011;15961;54.678;9.110;2022-12-07T05:10:23;31.95;;;8.30;;
28822;SDS011;15961;54.678;9.110;2022-12-07T05:12:48;27.15;;;9.98;;
28822;SDS011;15961;54.678;9.110;2022-12-07T05:15:14;23.83;;;7.38;;
28822;SDS011;15961;54.678;9.110;2022-12-07T05:17:40;25.70;;;7.47;;
28822;SDS011;15961;54.678;9.110;2022-12-07T05:20:06;28.17;;;8.25;;
28822;SDS011;15961;54.678;9.110;2022-12-07T05:22:33;25.70;;;10.10;;
28822;SDS011;15961;54.678;9.110;2022-12-07T05:24:59;21.15;;;7.55;;
28822;SDS011;15961;54.678;9.110;2022-12-07T05:27:24;27.65;;;7.30;;
28822;SDS011;15961;54.678;9.110;2022-12-07T05:29:50;36.72;;;9.93;;
28822;SDS011;15961;54.678;9.110;2022-12-07T05:32:16;25.48;;;6.75;;
28822;SDS011;15961;54.678;9.110;2022-12-07T05:34:42;34.42;;;6.70;;
28822;SDS011;15961;54.678;9.110;2022-12-07T05:37:07;20.20;;;6.47;;
28822;SDS011;15961;54.678;9.110;2022-12-07T05:39:33;24.40;;;5.55;;
28822;SDS011;15961;54.678;9.110;2022-12-07T05:41:59;30.90;;;6.28;;
28822;SDS011;15961;54.678;9.110;2022-12-07T05:44:43;28.38;;;5.15;;
28822;SDS011;15961;54.678;9.110;2022-12-07T05:47:11;18.77;;;4.30;;
28822;SDS011;15961;54.678;9.110;2022-12-07T05:49:38;16.75;;;4.63;;
28822;SDS011;15961;54.678;9.110;2022-12-07T05:52:04;22.98;;;5.30;;
28822;SDS011;15961;54.678;9.110;2022-12-07T05:54:30;48.80;;;4.43;;
28822;SDS011;15961;54.678;9.110;2022-12-07T05:56:56;22.17;;;4.00;;
28822;SDS011;15961;54.678;9.110;2022-12-07T05:59:22;18.13;;;3.33;;
28822;SDS011;15961;54.678;9.110;2022-12-07T06:01:49;32.20;;;5.15;;
28822;SDS011;15961;54.678;9.110;2022-12-07T06:04:15;39.00;;;7.18;;
28822;SDS011;15961;54.678;9.110;2022-12-07T06:06:41;38.80;;;11.27;;
28822;SDS011;15961;54.678;9.110;2022-12-07T06:09:07;36.80;;;8.30;;
28822;SDS011;15961;54.678;9.110;2022-12-07T06:11:32;38.85;;;6.63;;
28822;SDS011;15961;54.678;9.110;2022-12-07T06:14:16;21.52;;;3.88;;
28822;SDS011;15961;54.678;9.110;2022-12-07T06:16:42;18.70;;;4.30;;
28822;SDS011;15961;54.678;9.110;2022-12-07T06:19:07;20.17;;;4.90;;
28822;SDS011;15961;54.678;9.110;2022-12-07T06:21:33;21.80;;;3.00;;
28822;SDS011;15961;54.678;9.110;2022-12-07T06:23:58;17.77;;;2.00;;
28822;SDS011;15961;54.678;9.110;2022-12-07T06:26:24;14.95;;;1.55;;
28822;SDS011;15961;54.678;9.110;2022-12-07T06:28:49;5.82;;;2.53;;
28822;SDS011;15961;54.678;9.110;2022-12-07T06:31:15;22.40;;;2.58;;
28822;SDS011;15961;54.678;9.110;2022-12-07T06:33:41;25.25;;;3.22;;
28822;SDS011;15961;54.678;9.110;2022-12-07T06:36:07;11.68;;;2.80;;
28822;SDS011;15961;54.678;9.110;2022-12-07T06:38:33;8.02;;;3.65;;
28822;SDS011;15961;54.678;9.110;2022-12-07T06:40:59;12.15;;;2.83;;
28822;SDS011;15961;54.678;9.110;2022-12-07T06:43:25;18.33;;;2.08;;
28822;SDS011;15961;54.678;9.110;2022-12-07T06:45:50;17.67;;;2.15;;
28822;SDS011;15961;54.678;9.110;2022-12-07T06:48:16;10.68;;;2.78;;
28822;SDS011;15961;54.678;9.110;2022-12-07T06:50:44;19.73;;;3.03;;
28822;SDS011;15961;54.678;9.110;2022-12-07T06:53:10;25.42;;;6.20;;
28822;SDS011;15961;54.678;9.110;2022-12-07T06:55:35;29.73;;;11.93;;
28822;SDS011;15961;54.678;9.110;2022-12-07T06:58:01;12.38;;;2.83;;
28822;SDS011;15961;54.678;9.110;2022-12-07T07:00:27;14.02;;;2.40;;
28822;SDS011;15961;54.678;9.110;2022-12-07T07:02:53;26.38;;;2.63;;
28822;SDS011;15961;54.678;9.110;2022-12-07T07:05:18;12.75;;;2.05;;
28822;SDS011;15961;54.678;9.110;2022-12-07T07:07:46;33.03;;;8.52;;
28822;SDS011;15961;54.678;9.110;2022-12-07T07:10:12;43.42;;;12.63;;
28822;SDS011;15961;54.678;9.110;2022-12-07T07:12:38;23.73;;;3.42;;
28822;SDS011;15961;54.678;9.110;2022-12-07T07:15:04;41.50;;;9.52;;
28822;SDS011;15961;54.678;9.110;2022-12-07T07:17:29;20.70;;;4.25;;
28822;SDS011;15961;54.678;9.110;2022-12-07T07:19:55;53.95;;;12.82;;
28822;SDS011;15961;54.678;9.110;2022-12-07T07:22:20;47.58;;;12.10;;
28822;SDS011;15961;54.678;9.110;2022-12-07T07:24:46;14.75;;;3.28;;
28822;SDS011;15961;54.678;9.110;2022-12-07T07:27:12;77.25;;;15.25;;
28822;SDS011;15961;54.678;9.110;2022-12-07T07:29:37;18.75;;;4.88;;
28822;SDS011;15961;54.678;9.110;2022-12-07T07:32:03;36.22;;;5.85;;
28822;SDS011;15961;54.678;9.110;2022-12-07T07:34:28;15.32;;;2.83;;
28822;SDS011;15961;54.678;9.110;2022-12-07T07:36:54;33.70;;;6.38;;
28822;SDS011;15961;54.678;9.110;2022-12-07T07:39:19;37.92;;;5.18;;
28822;SDS011;15961;54.678;9.110;2022-12-07T07:41:45;25.42;;;4.13;;
28822;SDS011;15961;54.678;9.110;2022-12-07T07:44:11;32.58;;;4.18;;
28822;SDS011;15961;54.678;9.110;2022-12-07T07:46:37;25.83;;;3.83;;
28822;SDS011;15961;54.678;9.110;2022-12-07T07:49:02;23.80;;;4.88;;
28822;SDS011;15961;54.678;9.110;2022-12-07T07:51:28;14.88;;;3.28;;
28822;SDS011;15961;54.678;9.110;2022-12-07T07:53:53;15.70;;;4.00;;
28822;SDS011;15961;54.678;9.110;2022-12-07T07:56:19;21.50;;;6.43;;
28822;SDS011;15961;54.678;9.110;2022-12-07T07:58:44;22.70;;;2.88;;
28822;SDS011;15961;54.678;9.110;2022-12-07T08:01:10;26.33;;;4.45;;
28822;SDS011;15961;54.678;9.110;2022-12-07T08:03:36;24.40;;;3.28;;
28822;SDS011;15961;54.678;9.110;2022-12-07T08:06:02;18.00;;;4.93;;
28822;SDS011;15961;54.678;9.110;2022-12-07T08:08:28;29.42;;;5.07;;
28822;SDS011;15961;54.678;9.110;2022-12-07T08:10:54;22.60;;;3.03;;
28822;SDS011;15961;54.678;9.110;2022-12-07T08:13:19;24.38;;;3.05;;
28822;SDS011;15961;54.678;9.110;2022-12-07T08:15:46;17.20;;;4.20;;
28822;SDS011;15961;54.678;9.110;2022-12-07T08:18:13;21.85;;;4.07;;
28822;SDS011;15961;54.678;9.110;2022-12-07T08:20:39;25.92;;;3.65;;
28822;SDS011;15961;54.678;9.110;2022-12-07T08:23:06;17.95;;;3.03;;
28822;SDS011;15961;54.678;9.110;2022-12-07T08:25:32;8.68;;;2.60;;
28822;SDS011;15961;54.678;9.110;2022-12-07T08:27:58;15.77;;;4.90;;
28822;SDS011;15961;54.678;9.110;2022-12-07T08:30:25;277.30;;;91.70;;
28822;SDS011;15961;54.678;9.110;2022-12-07T08:32:51;182.90;;;81.25;;
28822;SDS011;15961;54.678;9.110;2022-12-07T08:35:17;67.45;;;31.85;;
28822;SDS011;15961;54.678;9.110;2022-12-07T08:37:43;40.47;;;21.85;;
28822;SDS011;15961;54.678;9.110;2022-12-07T08:40:09;60.85;;;21.77;;
28822;SDS011;15961;54.678;9.110;2022-12-07T08:42:36;16.75;;;5.25;;
28822;SDS011;15961;54.678;9.110;2022-12-07T08:45:12;60.78;;;16.65;;
28822;SDS011;15961;54.678;9.110;2022-12-07T08:50:07;86.88;;;20.02;;
28822;SDS011;15961;54.678;9.110;2022-12-07T08:52:34;49.22;;;14.77;;
28822;SDS011;15961;54.678;9.110;2022-12-07T08:55:01;59.30;;;17.17;;
28822;SDS011;15961;54.678;9.110;2022-12-07T08:57:28;74.82;;;23.15;;
28822;SDS011;15961;54.678;9.110;2022-12-07T08:59:54;58.33;;;19.27;;
28822;SDS011;15961;54.678;9.110;2022-12-07T09:02:20;53.88;;;15.25;;
28822;SDS011;15961;54.678;9.110;2022-12-07T09:04:46;60.22;;;14.50;;
28822;SDS011;15961;54.678;9.110;2022-12-07T09:07:11;40.50;;;12.95;;
28822;SDS011;15961;54.678;9.110;2022-12-07T09:09:37;36.25;;;10.77;;
28822;SDS011;15961;54.678;9.110;2022-12-07T09:12:03;53.03;;;16.17;;
28822;SDS011;15961;54.678;9.110;2022-12-07T09:14:28;46.55;;;10.52;;
28822;SDS011;15961;54.678;9.110;2022-12-07T09:16:54;59.05;;;16.63;;
28822;SDS011;15961;54.678;9.110;2022-12-07T09:19:22;45.28;;;12.32;;
28822;SDS011;15961;54.678;9.110;2022-12-07T09:21:47;36.95;;;9.68;;
28822;SDS011;15961;54.678;9.110;2022-12-07T09:24:13;23.08;;;7.95;;
28822;SDS011;15961;54.678;9.110;2022-12-07T09:26:38;16.33;;;5.45;;
28822;SDS011;15961;54.678;9.110;2022-12-07T09:29:05;44.65;;;10.55;;
28822;SDS011;15961;54.678;9.110;2022-12-07T09:31:31;33.08;;;6.80;;
28822;SDS011;15961;54.678;9.110;2022-12-07T09:33:57;17.85;;;3.40;;
28822;SDS011;15961;54.678;9.110;2022-12-07T09:36:24;31.38;;;6.38;;
28822;SDS011;15961;54.678;9.110;2022-12-07T09:38:50;21.80;;;4.35;;
28822;SDS011;15961;54.678;9.110;2022-12-07T09:41:16;6.68;;;1.60;;
28822;SDS011;15961;54.678;9.110;2022-12-07T09:43:42;7.72;;;1.92;;
28822;SDS011;15961;54.678;9.110;2022-12-07T09:46:09;11.27;;;1.38;;
28822;SDS011;15961;54.678;9.110;2022-12-07T09:48:40;5.35;;;1.45;;
28822;SDS011;15961;54.678;9.110;2022-12-07T09:51:14;8.98;;;2.08;;
28822;SDS011;15961;54.678;9.110;2022-12-07T09:53:43;9.63;;;1.67;;
28822;SDS011;15961;54.678;9.110;2022-12-07T09:56:13;4.50;;;1.00;;
28822;SDS011;15961;54.678;9.110;2022-12-07T09:58:40;10.68;;;1.38;;
28822;SDS011;15961;54.678;9.110;2022-12-07T10:01:13;12.52;;;1.52;;
28822;SDS011;15961;54.678;9.110;2022-12-07T10:03:42;15.02;;;1.20;;
28822;SDS011;15961;54.678;9.110;2022-12-07T10:06:15;10.07;;;1.30;;
28822;SDS011;15961;54.678;9.110;2022-12-07T10:08:40;9.13;;;1.88;;
28822;SDS011;15961;54.678;9.110;2022-12-07T10:11:09;7.15;;;1.20;;
28822;SDS011;15961;54.678;9.110;2022-12-07T10:13:49;5.78;;;1.20;;
28822;SDS011;15961;54.678;9.110;2022-12-07T10:18:51;13.98;;;1.77;;
28822;SDS011;15961;54.678;9.110;2022-12-07T10:21:17;7.32;;;2.22;;
28822;SDS011;15961;54.678;9.110;2022-12-07T10:31:41;7.35;;;2.22;;
28822;SDS011;15961;54.678;9.110;2022-12-07T10:34:42;5.38;;;1.40;;
28822;SDS011;15961;54.678;9.110;2022-12-07T10:37:22;7.32;;;1.73;;
28822;SDS011;15961;54.678;9.110;2022-12-07T10:39:51;15.68;;;2.65;;
28822;SDS011;15961;54.678;9.110;2022-12-07T10:42:19;8.35;;;2.28;;
28822;SDS011;15961;54.678;9.110;2022-12-07T10:44:48;14.55;;;2.72;;
28822;SDS011;15961;54.678;9.110;2022-12-07T10:47:34;12.55;;;2.53;;
28822;SDS011;15961;54.678;9.110;2022-12-07T10:56:11;25.27;;;5.82;;
28822;SDS011;15961;54.678;9.110;2022-12-07T11:01:30;76.50;;;19.65;;
28822;SDS011;15961;54.678;9.110;2022-12-07T11:07:18;44.42;;;17.90;;
28822;SDS011;15961;54.678;9.110;2022-12-07T11:10:01;81.88;;;29.83;;
28822;SDS011;15961;54.678;9.110;2022-12-07T11:12:38;99.57;;;37.35;;
28822;SDS011;15961;54.678;9.110;2022-12-07T11:15:34;40.90;;;15.32;;
28822;SDS011;15961;54.678;9.110;2022-12-07T11:18:22;24.30;;;9.80;;
28822;SDS011;15961;54.678;9.110;2022-12-07T11:26:34;65.88;;;15.35;;
28822;SDS011;15961;54.678;9.110;2022-12-07T11:29:11;43.92;;;11.35;;
28822;SDS011;15961;54.678;9.110;2022-12-07T11:32:01;45.97;;;12.18;;
28822;SDS011;15961;54.678;9.110;2022-12-07T11:37:29;35.90;;;9.63;;
28822;SDS011;15961;54.678;9.110;2022-12-07T11:40:04;31.77;;;8.75;;
28822;SDS011;15961;54.678;9.110;2022-12-07T11:42:51;19.58;;;5.15;;
28822;SDS011;15961;54.678;9.110;2022-12-07T11:45:21;28.83;;;7.70;;
28822;SDS011;15961;54.678;9.110;2022-12-07T11:47:59;20.17;;;5.18;;
28822;SDS011;15961;54.678;9.110;2022-12-07T11:50:54;20.75;;;5.32;;
28822;SDS011;15961;54.678;9.110;2022-12-07T11:55:52;51.30;;;12.27;;
28822;SDS011;15961;54.678;9.110;2022-12-07T12:01:06;21.90;;;4.55;;
28822;SDS011;15961;54.678;9.110;2022-12-07T12:06:21;47.03;;;10.32;;
28822;SDS011;15961;54.678;9.110;2022-12-07T12:08:52;21.92;;;5.43;;
28822;SDS011;15961;54.678;9.110;2022-12-07T12:11:31;73.28;;;14.65;;
28822;SDS011;15961;54.678;9.110;2022-12-07T12:20:23;14.13;;;3.55;;
28822;SDS011;15961;54.678;9.110;2022-12-07T12:25:55;13.20;;;3.97;;
28822;SDS011;15961;54.678;9.110;2022-12-07T12:28:31;6.15;;;2.53;;
28822;SDS011;15961;54.678;9.110;2022-12-07T12:31:16;4.20;;;1.67;;
28822;SDS011;15961;54.678;9.110;2022-12-07T12:34:29;10.88;;;2.47;;
28822;SDS011;15961;54.678;9.110;2022-12-07T12:37:17;9.02;;;2.13;;
28822;SDS011;15961;54.678;9.110;2022-12-07T12:43:26;8.68;;;1.92;;
28822;SDS011;15961;54.678;9.110;2022-12-07T12:45:51;3.83;;;1.60;;
28822;SDS011;15961;54.678;9.110;2022-12-07T12:54:19;11.40;;;1.60;;
28822;SDS011;15961;54.678;9.110;2022-12-07T13:00:16;7.18;;;1.65;;
28822;SDS011;15961;54.678;9.110;2022-12-07T13:02:24;6.38;;;1.98;;
28822;SDS011;15961;54.678;9.110;2022-12-07T13:15:43;9.43;;;3.42;;
28822;SDS011;15961;54.678;9.110;2022-12-07T13:18:24;7.63;;;2.25;;
28822;SDS011;15961;54.678;9.110;2022-12-07T13:23:31;9.40;;;3.80;;
28822;SDS011;15961;54.678;9.110;2022-12-07T13:26:02;11.88;;;3.13;;
28822;SDS011;15961;54.678;9.110;2022-12-07T13:28:49;6.22;;;2.60;;
28822;SDS011;15961;54.678;9.110;2022-12-07T13:33:55;15.93;;;5.70;;
28822;SDS011;15961;54.678;9.110;2022-12-07T13:36:27;21.95;;;8.50;;
28822;SDS011;15961;54.678;9.110;2022-12-07T13:39:44;17.75;;;8.75;;
28822;SDS011;15961;54.678;9.110;2022-12-07T13:42:06;16.67;;;7.43;;
28822;SDS011;15961;54.678;9.110;2022-12-07T13:44:39;22.92;;;10.15;;
28822;SDS011;15961;54.678;9.110;2022-12-07T13:47:06;60.20;;;22.45;;
28822;SDS011;15961;54.678;9.110;2022-12-07T13:49:49;22.42;;;10.30;;
28822;SDS011;15961;54.678;9.110;2022-12-07T13:52:17;20.38;;;9.82;;
28822;SDS011;15961;54.678;9.110;2022-12-07T13:54:56;12.88;;;6.80;;
28822;SDS011;15961;54.678;9.110;2022-12-07T13:57:31;15.30;;;6.25;;
28822;SDS011;15961;54.678;9.110;2022-12-07T14:00:00;14.10;;;6.05;;
28822;SDS011;15961;54.678;9.110;2022-12-07T14:02:32;5.85;;;2.80;;
28822;SDS011;15961;54.678;9.110;2022-12-07T14:05:07;8.20;;;2.63;;
28822;SDS011;15961;54.678;9.110;2022-12-07T14:07:54;7.97;;;3.15;;
28822;SDS011;15961;54.678;9.110;2022-12-07T14:10:22;8.05;;;2.72;;
28822;SDS011;15961;54.678;9.110;2022-12-07T14:12:49;5.65;;;2.40;;
28822;SDS011;15961;54.678;9.110;2022-12-07T14:15:27;9.00;;;3.40;;
28822;SDS011;15961;54.678;9.110;2022-12-07T14:17:56;11.48;;;2.58;;
28822;SDS011;15961;54.678;9.110;2022-12-07T14:22:59;10.05;;;4.43;;
28822;SDS011;15961;54.678;9.110;2022-12-07T14:25:34;5.78;;;1.48;;
28822;SDS011;15961;54.678;9.110;2022-12-07T14:28:27;9.88;;;2.28;;
28822;SDS011;15961;54.678;9.110;2022-12-07T14:30:54;8.85;;;1.98;;
28822;SDS011;15961;54.678;9.110;2022-12-07T14:33:20;13.85;;;2.28;;
28822;SDS011;15961;54.678;9.110;2022-12-07T14:35:47;6.75;;;1.77;;
28822;SDS011;15961;54.678;9.110;2022-12-07T14:38:12;12.90;;;4.10;;
28822;SDS011;15961;54.678;9.110;2022-12-07T14:40:38;11.70;;;2.85;;
28822;SDS011;15961;54.678;9.110;2022-12-07T14:43:09;2.88;;;1.33;;
28822;SDS011;15961;54.678;9.110;2022-12-07T14:45:37;3.17;;;1.20;;
28822;SDS011;15961;54.678;9.110;2022-12-07T14:48:04;7.88;;;2.95;;
28822;SDS011;15961;54.678;9.110;2022-12-07T14:50:31;6.22;;;1.52;;
28822;SDS011;15961;54.678;9.110;2022-12-07T14:53:03;8.90;;;1.52;;
28822;SDS011;15961;54.678;9.110;2022-12-07T14:55:37;5.10;;;1.38;;
28822;SDS011;15961;54.678;9.110;2022-12-07T14:58:03;24.50;;;8.25;;
28822;SDS011;15961;54.678;9.110;2022-12-07T15:00:28;27.20;;;8.75;;
28822;SDS011;15961;54.678;9.110;2022-12-07T15:02:54;11.38;;;3.30;;
28822;SDS011;15961;54.678;9.110;2022-12-07T15:05:20;13.93;;;4.22;;
28822;SDS011;15961;54.678;9.110;2022-12-07T15:07:47;15.90;;;5.93;;
28822;SDS011;15961;54.678;9.110;2022-12-07T15:12:45;18.50;;;5.95;;
28822;SDS011;15961;54.678;9.110;2022-12-07T15:15:11;16.52;;;6.53;;
28822;SDS011;15961;54.678;9.110;2022-12-07T15:17:37;37.35;;;16.02;;
28822;SDS011;15961;54.678;9.110;2022-12-07T15:20:02;35.70;;;15.55;;
28822;SDS011;15961;54.678;9.110;2022-12-07T15:22:29;38.78;;;15.20;;
28822;SDS011;15961;54.678;9.110;2022-12-07T15:24:56;94.22;;;35.20;;
28822;SDS011;15961;54.678;9.110;2022-12-07T15:27:22;70.95;;;27.98;;
28822;SDS011;15961;54.678;9.110;2022-12-07T15:29:47;76.95;;;30.88;;
28822;SDS011;15961;54.678;9.110;2022-12-07T15:32:13;107.00;;;41.35;;
28822;SDS011;15961;54.678;9.110;2022-12-07T15:34:38;53.25;;;22.08;;
28822;SDS011;15961;54.678;9.110;2022-12-07T15:37:07;53.17;;;17.17;;
28822;SDS011;15961;54.678;9.110;2022-12-07T15:39:35;39.20;;;15.95;;
28822;SDS011;15961;54.678;9.110;2022-12-07T15:42:01;27.33;;;11.38;;
28822;SDS011;15961;54.678;9.110;2022-12-07T15:44:27;18.45;;;7.47;;
28822;SDS011;15961;54.678;9.110;2022-12-07T15:47:11;19.55;;;6.72;;
28822;SDS011;15961;54.678;9.110;2022-12-07T15:49:37;17.10;;;7.60;;
28822;SDS011;15961;54.678;9.110;2022-12-07T15:52:02;13.43;;;6.80;;
28822;SDS011;15961;54.678;9.110;2022-12-07T15:54:29;20.67;;;10.25;;
28822;SDS011;15961;54.678;9.110;2022-12-07T15:56:55;10.77;;;5.18;;
28822;SDS011;15961;54.678;9.110;2022-12-07T15:59:21;15.98;;;4.97;;
28822;SDS011;15961;54.678;9.110;2022-12-07T16:01:47;13.73;;;3.50;;
28822;SDS011;15961;54.678;9.110;2022-12-07T16:04:13;9.43;;;2.47;;
28822;SDS011;15961;54.678;9.110;2022-12-07T16:06:38;5.93;;;2.92;;
28822;SDS011;15961;54.678;9.110;2022-12-07T16:09:05;5.40;;;2.80;;
28822;SDS011;15961;54.678;9.110;2022-12-07T16:11:30;7.75;;;2.72;;
28822;SDS011;15961;54.678;9.110;2022-12-07T16:13:57;10.13;;;4.50;;
28822;SDS011;15961;54.678;9.110;2022-12-07T16:16:22;13.20;;;4.43;;
28822;SDS011;15961;54.678;9.110;2022-12-07T16:18:48;8.45;;;3.80;;
28822;SDS011;15961;54.678;9.110;2022-12-07T16:21:15;9.90;;;4.18;;
28822;SDS011;15961;54.678;9.110;2022-12-07T16:23:41;8.82;;;3.45;;
28822;SDS011;15961;54.678;9.110;2022-12-07T16:26:14;6.55;;;3.10;;
28822;SDS011;15961;54.678;9.110;2022-12-07T16:28:44;5.20;;;2.78;;
28822;SDS011;15961;54.678;9.110;2022-12-07T16:31:11;10.60;;;2.88;;
28822;SDS011;15961;54.678;9.110;2022-12-07T16:33:38;9.07;;;3.00;;
28822;SDS011;15961;54.678;9.110;2022-12-07T16:36:06;5.53;;;2.45;;
28822;SDS011;15961;54.678;9.110;2022-12-07T16:38:33;4.70;;;3.15;;
28822;SDS011;15961;54.678;9.110;2022-12-07T16:40:59;4.97;;;2.60;;